메인 페이지
METAR-TAF:

METAR-TAF

공항 :

Kinloss, 스코틀랜드

위도: 57-39N, 경도: 003-34W, 고도: 7m

현재 날씨관측

예보는 30분 전, 21:20시(UTC)에 발표되었습니다.
북서12kt
온도 13°C
습도 94%
기압 1003 hPa
시정: 4900m
비,

METAR: EGQK 202120Z AUTO 31012KT 4900 RA BKN006/// 13/12 Q1003

시각: 22:50 (21:50 UTC)


TAF: 누락

4,000개 이상의 공항 관측 자료 및 예보 (METAR 및 TAF 보고).

지도상에서 검색 가능한 기상관측소가 노란 점과 빨간 점으로 표시되어 있습니다.

기상관측소 명을 보려면 표시 위로 마우스를 이동하세요.

날씨 관측과 예보를 보려면 클릭하세요.

지도 변경 : 확대하려면 엑스 표시가 있는 녹색 버튼, 축소하려면 빼기 표시가 있는 녹색 버튼, 다음 페이지의 지도를 보려면 녹색 화살표를 클릭하세요.


METAR-TAF: